sensor_id;sensor_type;location;lat;lon;timestamp;temperature;humidity
57664;DHT22;43493;53.098;6.064;2023-02-23T00:02:15;8.30;99.90
57664;DHT22;43493;53.098;6.064;2023-02-23T00:04:41;8.30;99.90
57664;DHT22;43493;53.098;6.064;2023-02-23T00:07:07;8.30;99.90
57664;DHT22;43493;53.098;6.064;2023-02-23T00:09:33;8.30;99.90
57664;DHT22;43493;53.098;6.064;2023-02-23T00:12:05;8.30;99.90
57664;DHT22;43493;53.098;6.064;2023-02-23T00:14:35;8.20;99.90
57664;DHT22;43493;53.098;6.064;2023-02-23T00:17:02;8.30;99.90
57664;DHT22;43493;53.098;6.064;2023-02-23T00:19:28;8.30;99.90
57664;DHT22;43493;53.098;6.064;2023-02-23T00:21:53;8.30;99.90
57664;DHT22;43493;53.098;6.064;2023-02-23T00:24:23;8.30;99.90
57664;DHT22;43493;53.098;6.064;2023-02-23T00:26:51;8.30;99.90
57664;DHT22;43493;53.098;6.064;2023-02-23T00:29:20;8.30;99.90
57664;DHT22;43493;53.098;6.064;2023-02-23T00:31:47;8.30;99.90
57664;DHT22;43493;53.098;6.064;2023-02-23T00:34:14;8.20;99.90
57664;DHT22;43493;53.098;6.064;2023-02-23T00:36:41;8.20;99.90
57664;DHT22;43493;53.098;6.064;2023-02-23T00:39:10;8.20;99.90
57664;DHT22;43493;53.098;6.064;2023-02-23T00:41:54;8.20;99.90
57664;DHT22;43493;53.098;6.064;2023-02-23T00:44:21;8.20;99.90
57664;DHT22;43493;53.098;6.064;2023-02-23T00:46:48;8.20;99.90
57664;DHT22;43493;53.098;6.064;2023-02-23T00:49:16;8.20;99.90
57664;DHT22;43493;53.098;6.064;2023-02-23T00:51:43;8.20;99.90
57664;DHT22;43493;53.098;6.064;2023-02-23T00:54:12;8.20;99.90
57664;DHT22;43493;53.098;6.064;2023-02-23T00:56:38;8.20;99.90
57664;DHT22;43493;53.098;6.064;2023-02-23T00:59:04;8.20;99.90
57664;DHT22;43493;53.098;6.064;2023-02-23T01:01:30;8.20;99.90
57664;DHT22;43493;53.098;6.064;2023-02-23T01:03:56;8.20;99.90
57664;DHT22;43493;53.098;6.064;2023-02-23T01:06:22;8.20;99.90
57664;DHT22;43493;53.098;6.064;2023-02-23T01:08:50;8.20;99.90
57664;DHT22;43493;53.098;6.064;2023-02-23T01:11:21;8.20;99.90
57664;DHT22;43493;53.098;6.064;2023-02-23T01:13:49;8.20;99.90
57664;DHT22;43493;53.098;6.064;2023-02-23T01:16:18;8.30;99.90
57664;DHT22;43493;53.098;6.064;2023-02-23T01:18:45;8.30;99.90
57664;DHT22;43493;53.098;6.064;2023-02-23T01:21:31;8.20;99.90
57664;DHT22;43493;53.098;6.064;2023-02-23T01:23:57;8.20;99.90
57664;DHT22;43493;53.098;6.064;2023-02-23T01:26:28;8.20;99.90
57664;DHT22;43493;53.098;6.064;2023-02-23T01:28:57;8.30;99.90
57664;DHT22;43493;53.098;6.064;2023-02-23T01:31:25;8.20;99.90
57664;DHT22;43493;53.098;6.064;2023-02-23T01:33:55;8.30;99.90
57664;DHT22;43493;53.098;6.064;2023-02-23T01:36:21;8.20;99.90
57664;DHT22;43493;53.098;6.064;2023-02-23T01:38:48;8.20;99.90
57664;DHT22;43493;53.098;6.064;2023-02-23T01:41:14;8.20;99.90
57664;DHT22;43493;53.098;6.064;2023-02-23T01:44:02;8.20;99.90
57664;DHT22;43493;53.098;6.064;2023-02-23T01:46:39;8.20;99.90
57664;DHT22;43493;53.098;6.064;2023-02-23T01:49:09;8.20;99.90
57664;DHT22;43493;53.098;6.064;2023-02-23T01:51:40;8.20;99.90
57664;DHT22;43493;53.098;6.064;2023-02-23T01:54:17;8.20;99.90
57664;DHT22;43493;53.098;6.064;2023-02-23T01:56:46;8.20;99.90
57664;DHT22;43493;53.098;6.064;2023-02-23T01:59:34;8.20;99.90
57664;DHT22;43493;53.098;6.064;2023-02-23T02:02:01;8.20;99.90
57664;DHT22;43493;53.098;6.064;2023-02-23T02:04:31;8.20;99.90
57664;DHT22;43493;53.098;6.064;2023-02-23T02:07:09;8.20;99.90
57664;DHT22;43493;53.098;6.064;2023-02-23T02:09:35;8.20;99.90
57664;DHT22;43493;53.098;6.064;2023-02-23T02:12:03;8.20;99.90
57664;DHT22;43493;53.098;6.064;2023-02-23T02:14:33;8.20;99.90
57664;DHT22;43493;53.098;6.064;2023-02-23T02:25:26;8.20;99.90
57664;DHT22;43493;53.098;6.064;2023-02-23T02:28:26;8.20;99.90
57664;DHT22;43493;53.098;6.064;2023-02-23T02:34:04;8.20;99.90
57664;DHT22;43493;53.098;6.064;2023-02-23T02:42:32;8.20;99.90
57664;DHT22;43493;53.098;6.064;2023-02-23T02:47:42;8.20;99.90
57664;DHT22;43493;53.098;6.064;2023-02-23T02:50:24;8.10;99.90
57664;DHT22;43493;53.098;6.064;2023-02-23T02:53:12;8.20;99.90
57664;DHT22;43493;53.098;6.064;2023-02-23T02:55:40;8.10;99.90
57664;DHT22;43493;53.098;6.064;2023-02-23T02:58:10;8.20;99.90
57664;DHT22;43493;53.098;6.064;2023-02-23T03:00:41;8.20;99.90
57664;DHT22;43493;53.098;6.064;2023-02-23T03:06:26;8.20;99.90
57664;DHT22;43493;53.098;6.064;2023-02-23T03:12:10;8.20;99.90
57664;DHT22;43493;53.098;6.064;2023-02-23T03:15:07;8.20;99.90
57664;DHT22;43493;53.098;6.064;2023-02-23T03:20:53;8.20;99.90
57664;DHT22;43493;53.098;6.064;2023-02-23T03:26:39;8.20;99.90
57664;DHT22;43493;53.098;6.064;2023-02-23T03:29:29;8.20;99.90
57664;DHT22;43493;53.098;6.064;2023-02-23T03:32:36;8.10;99.90
57664;DHT22;43493;53.098;6.064;2023-02-23T03:39:00;8.20;99.90
57664;DHT22;43493;53.098;6.064;2023-02-23T03:41:48;8.20;99.90
57664;DHT22;43493;53.098;6.064;2023-02-23T03:44:38;8.10;99.90
57664;DHT22;43493;53.098;6.064;2023-02-23T03:47:26;8.10;99.90
57664;DHT22;43493;53.098;6.064;2023-02-23T03:50:38;8.10;99.90
57664;DHT22;43493;53.098;6.064;2023-02-23T03:53:30;8.10;99.90
57664;DHT22;43493;53.098;6.064;2023-02-23T03:56:17;8.10;99.90
57664;DHT22;43493;53.098;6.064;2023-02-23T03:59:04;8.10;99.90
57664;DHT22;43493;53.098;6.064;2023-02-23T04:01:52;8.10;99.90
57664;DHT22;43493;53.098;6.064;2023-02-23T04:04:39;8.10;99.90
57664;DHT22;43493;53.098;6.064;2023-02-23T04:07:23;8.10;99.90
57664;DHT22;43493;53.098;6.064;2023-02-23T04:10:08;8.10;99.90
57664;DHT22;43493;53.098;6.064;2023-02-23T04:15:55;8.10;99.90
57664;DHT22;43493;53.098;6.064;2023-02-23T04:18:30;8.10;99.90
57664;DHT22;43493;53.098;6.064;2023-02-23T04:20:57;8.10;99.90
57664;DHT22;43493;53.098;6.064;2023-02-23T04:23:23;8.10;99.90
57664;DHT22;43493;53.098;6.064;2023-02-23T04:25:50;8.10;99.90
57664;DHT22;43493;53.098;6.064;2023-02-23T04:28:16;8.10;99.90
57664;DHT22;43493;53.098;6.064;2023-02-23T04:30:42;8.10;99.90
57664;DHT22;43493;53.098;6.064;2023-02-23T04:33:09;8.10;99.90
57664;DHT22;43493;53.098;6.064;2023-02-23T04:35:35;8.10;99.90
57664;DHT22;43493;53.098;6.064;2023-02-23T04:38:01;8.10;99.90
57664;DHT22;43493;53.098;6.064;2023-02-23T04:40:27;8.10;99.90
57664;DHT22;43493;53.098;6.064;2023-02-23T04:42:53;8.10;99.90
57664;DHT22;43493;53.098;6.064;2023-02-23T04:45:20;8.10;99.90
57664;DHT22;43493;53.098;6.064;2023-02-23T04:47:46;8.10;99.90
57664;DHT22;43493;53.098;6.064;2023-02-23T04:50:13;8.10;99.90
57664;DHT22;43493;53.098;6.064;2023-02-23T04:52:39;8.10;99.90
57664;DHT22;43493;53.098;6.064;2023-02-23T04:55:06;8.10;99.90
57664;DHT22;43493;53.098;6.064;2023-02-23T04:57:33;8.10;99.90
57664;DHT22;43493;53.098;6.064;2023-02-23T04:59:59;8.00;99.90
57664;DHT22;43493;53.098;6.064;2023-02-23T05:02:26;8.10;99.90
57664;DHT22;43493;53.098;6.064;2023-02-23T05:04:52;8.10;99.90
57664;DHT22;43493;53.098;6.064;2023-02-23T05:07:18;8.00;99.90
57664;DHT22;43493;53.098;6.064;2023-02-23T05:09:43;8.10;99.90
57664;DHT22;43493;53.098;6.064;2023-02-23T05:12:09;8.00;99.90
57664;DHT22;43493;53.098;6.064;2023-02-23T05:14:35;8.00;99.90
57664;DHT22;43493;53.098;6.064;2023-02-23T05:17:01;8.10;99.90
57664;DHT22;43493;53.098;6.064;2023-02-23T05:19:26;8.00;99.90
57664;DHT22;43493;53.098;6.064;2023-02-23T05:21:52;8.00;99.90
57664;DHT22;43493;53.098;6.064;2023-02-23T05:24:18;8.10;99.90
57664;DHT22;43493;53.098;6.064;2023-02-23T05:26:44;8.00;99.90
57664;DHT22;43493;53.098;6.064;2023-02-23T05:29:11;8.00;99.90
57664;DHT22;43493;53.098;6.064;2023-02-23T05:31:36;8.00;99.90
57664;DHT22;43493;53.098;6.064;2023-02-23T05:34:02;8.00;99.90
57664;DHT22;43493;53.098;6.064;2023-02-23T05:36:28;8.00;99.90
57664;DHT22;43493;53.098;6.064;2023-02-23T05:38:54;8.00;99.90
57664;DHT22;43493;53.098;6.064;2023-02-23T05:41:21;8.00;99.90
57664;DHT22;43493;53.098;6.064;2023-02-23T05:43:49;8.00;99.90
57664;DHT22;43493;53.098;6.064;2023-02-23T05:46:19;8.00;99.90
57664;DHT22;43493;53.098;6.064;2023-02-23T05:48:45;8.00;99.90
57664;DHT22;43493;53.098;6.064;2023-02-23T05:51:13;8.00;99.90
57664;DHT22;43493;53.098;6.064;2023-02-23T05:53:40;8.00;99.90
57664;DHT22;43493;53.098;6.064;2023-02-23T05:56:07;8.00;99.90
57664;DHT22;43493;53.098;6.064;2023-02-23T05:58:33;8.00;99.90
57664;DHT22;43493;53.098;6.064;2023-02-23T06:00:59;8.00;99.90
57664;DHT22;43493;53.098;6.064;2023-02-23T06:03:25;8.00;99.90
57664;DHT22;43493;53.098;6.064;2023-02-23T06:05:55;7.90;99.90
57664;DHT22;43493;53.098;6.064;2023-02-23T06:08:22;8.00;99.90
57664;DHT22;43493;53.098;6.064;2023-02-23T06:10:50;8.00;99.90
57664;DHT22;43493;53.098;6.064;2023-02-23T06:13:15;8.00;99.90
57664;DHT22;43493;53.098;6.064;2023-02-23T06:15:42;8.00;99.90
57664;DHT22;43493;53.098;6.064;2023-02-23T06:18:09;8.00;99.90
57664;DHT22;43493;53.098;6.064;2023-02-23T06:20:35;7.90;99.90
57664;DHT22;43493;53.098;6.064;2023-02-23T06:23:01;8.00;99.90
57664;DHT22;43493;53.098;6.064;2023-02-23T06:25:27;8.00;99.90
57664;DHT22;43493;53.098;6.064;2023-02-23T06:27:53;8.00;99.90
57664;DHT22;43493;53.098;6.064;2023-02-23T06:30:19;8.00;99.90
57664;DHT22;43493;53.098;6.064;2023-02-23T06:32:45;8.00;99.90
57664;DHT22;43493;53.098;6.064;2023-02-23T06:35:11;8.00;99.90
57664;DHT22;43493;53.098;6.064;2023-02-23T06:37:36;8.00;99.90
57664;DHT22;43493;53.098;6.064;2023-02-23T06:40:03;8.00;99.90
57664;DHT22;43493;53.098;6.064;2023-02-23T06:42:29;8.00;99.90
57664;DHT22;43493;53.098;6.064;2023-02-23T06:44:55;8.00;99.90
57664;DHT22;43493;53.098;6.064;2023-02-23T06:47:20;8.00;99.90
57664;DHT22;43493;53.098;6.064;2023-02-23T06:49:46;8.00;99.90
57664;DHT22;43493;53.098;6.064;2023-02-23T06:52:12;8.00;99.90
57664;DHT22;43493;53.098;6.064;2023-02-23T06:54:39;8.00;99.90
57664;DHT22;43493;53.098;6.064;2023-02-23T06:57:07;8.00;99.90
57664;DHT22;43493;53.098;6.064;2023-02-23T06:59:32;8.00;99.90
57664;DHT22;43493;53.098;6.064;2023-02-23T07:01:58;8.10;99.90
57664;DHT22;43493;53.098;6.064;2023-02-23T07:04:24;8.10;99.90
57664;DHT22;43493;53.098;6.064;2023-02-23T07:06:50;8.00;99.90
57664;DHT22;43493;53.098;6.064;2023-02-23T07:09:16;8.00;99.90
57664;DHT22;43493;53.098;6.064;2023-02-23T07:11:42;8.00;99.90
57664;DHT22;43493;53.098;6.064;2023-02-23T07:14:11;8.00;99.90
57664;DHT22;43493;53.098;6.064;2023-02-23T07:16:37;8.00;99.90
57664;DHT22;43493;53.098;6.064;2023-02-23T07:19:05;8.00;99.90
57664;DHT22;43493;53.098;6.064;2023-02-23T07:21:32;8.00;99.90
57664;DHT22;43493;53.098;6.064;2023-02-23T07:23:58;8.00;99.90
57664;DHT22;43493;53.098;6.064;2023-02-23T07:26:24;8.00;99.90
57664;DHT22;43493;53.098;6.064;2023-02-23T07:28:50;8.00;99.90
57664;DHT22;43493;53.098;6.064;2023-02-23T07:31:16;8.00;99.90
57664;DHT22;43493;53.098;6.064;2023-02-23T07:33:42;8.00;99.90
57664;DHT22;43493;53.098;6.064;2023-02-23T07:36:08;8.00;99.90
57664;DHT22;43493;53.098;6.064;2023-02-23T07:38:34;8.00;99.90
57664;DHT22;43493;53.098;6.064;2023-02-23T07:41:01;8.10;99.90
57664;DHT22;43493;53.098;6.064;2023-02-23T07:43:27;8.10;99.90
57664;DHT22;43493;53.098;6.064;2023-02-23T07:45:53;8.10;99.90
57664;DHT22;43493;53.098;6.064;2023-02-23T07:48:20;8.10;99.90
57664;DHT22;43493;53.098;6.064;2023-02-23T07:50:45;8.10;99.90
57664;DHT22;43493;53.098;6.064;2023-02-23T07:53:12;8.00;99.90
57664;DHT22;43493;53.098;6.064;2023-02-23T07:55:37;8.10;99.90
57664;DHT22;43493;53.098;6.064;2023-02-23T07:58:05;8.10;99.90
57664;DHT22;43493;53.098;6.064;2023-02-23T08:00:32;8.10;99.90
57664;DHT22;43493;53.098;6.064;2023-02-23T08:02:59;8.10;99.90
57664;DHT22;43493;53.098;6.064;2023-02-23T08:05:26;8.10;99.90
57664;DHT22;43493;53.098;6.064;2023-02-23T08:07:53;8.10;99.90
57664;DHT22;43493;53.098;6.064;2023-02-23T08:10:21;8.10;99.90
57664;DHT22;43493;53.098;6.064;2023-02-23T08:12:46;8.10;99.90
57664;DHT22;43493;53.098;6.064;2023-02-23T08:15:12;8.20;99.90
57664;DHT22;43493;53.098;6.064;2023-02-23T08:17:38;8.20;99.90
57664;DHT22;43493;53.098;6.064;2023-02-23T08:20:05;8.20;99.90
57664;DHT22;43493;53.098;6.064;2023-02-23T08:22:31;8.20;99.90
57664;DHT22;43493;53.098;6.064;2023-02-23T08:24:56;8.20;99.90
57664;DHT22;43493;53.098;6.064;2023-02-23T08:27:23;8.20;99.90
57664;DHT22;43493;53.098;6.064;2023-02-23T08:29:49;8.20;99.90
57664;DHT22;43493;53.098;6.064;2023-02-23T08:32:18;8.10;99.90
57664;DHT22;43493;53.098;6.064;2023-02-23T08:34:44;8.20;99.90
57664;DHT22;43493;53.098;6.064;2023-02-23T08:37:10;8.20;99.90
57664;DHT22;43493;53.098;6.064;2023-02-23T08:39:36;8.20;99.90
57664;DHT22;43493;53.098;6.064;2023-02-23T08:42:03;8.20;99.90
57664;DHT22;43493;53.098;6.064;2023-02-23T08:44:29;8.20;99.90
57664;DHT22;43493;53.098;6.064;2023-02-23T08:46:54;8.30;99.90
57664;DHT22;43493;53.098;6.064;2023-02-23T08:49:23;8.30;99.90
57664;DHT22;43493;53.098;6.064;2023-02-23T08:51:49;8.30;99.90
57664;DHT22;43493;53.098;6.064;2023-02-23T08:54:14;8.30;99.90
57664;DHT22;43493;53.098;6.064;2023-02-23T08:56:42;8.30;99.90
57664;DHT22;43493;53.098;6.064;2023-02-23T08:59:09;8.30;99.90
57664;DHT22;43493;53.098;6.064;2023-02-23T09:01:35;8.30;99.90
57664;DHT22;43493;53.098;6.064;2023-02-23T09:04:02;8.30;99.90
57664;DHT22;43493;53.098;6.064;2023-02-23T09:06:30;8.40;99.90
57664;DHT22;43493;53.098;6.064;2023-02-23T09:08:56;8.40;99.90
57664;DHT22;43493;53.098;6.064;2023-02-23T09:11:22;8.40;99.90
57664;DHT22;43493;53.098;6.064;2023-02-23T09:13:49;8.30;99.90
57664;DHT22;43493;53.098;6.064;2023-02-23T09:16:15;8.30;99.90
57664;DHT22;43493;53.098;6.064;2023-02-23T09:18:41;8.30;99.90
57664;DHT22;43493;53.098;6.064;2023-02-23T09:21:13;8.30;99.90
57664;DHT22;43493;53.098;6.064;2023-02-23T09:23:43;8.30;99.90
57664;DHT22;43493;53.098;6.064;2023-02-23T09:26:10;8.30;99.90
57664;DHT22;43493;53.098;6.064;2023-02-23T09:28:36;8.30;99.90
57664;DHT22;43493;53.098;6.064;2023-02-23T09:31:12;8.30;99.90
57664;DHT22;43493;53.098;6.064;2023-02-23T09:33:39;8.30;99.90
57664;DHT22;43493;53.098;6.064;2023-02-23T09:36:10;8.30;99.90
57664;DHT22;43493;53.098;6.064;2023-02-23T09:38:48;8.30;99.90
57664;DHT22;43493;53.098;6.064;2023-02-23T09:41:47;8.40;99.90
57664;DHT22;43493;53.098;6.064;2023-02-23T09:44:41;8.40;99.90
57664;DHT22;43493;53.098;6.064;2023-02-23T09:49:48;8.40;99.90
57664;DHT22;43493;53.098;6.064;2023-02-23T09:52:23;8.50;99.90
57664;DHT22;43493;53.098;6.064;2023-02-23T09:54:49;8.60;99.90
57664;DHT22;43493;53.098;6.064;2023-02-23T09:57:21;8.60;99.90
57664;DHT22;43493;53.098;6.064;2023-02-23T09:59:48;8.60;99.90
57664;DHT22;43493;53.098;6.064;2023-02-23T10:02:33;8.60;99.90
57664;DHT22;43493;53.098;6.064;2023-02-23T10:05:06;8.60;99.90
57664;DHT22;43493;53.098;6.064;2023-02-23T10:07:53;8.70;99.90
57664;DHT22;43493;53.098;6.064;2023-02-23T10:10:29;8.70;99.90
57664;DHT22;43493;53.098;6.064;2023-02-23T10:15:49;8.70;99.90
57664;DHT22;43493;53.098;6.064;2023-02-23T10:20:57;8.70;99.90
57664;DHT22;43493;53.098;6.064;2023-02-23T10:25:59;8.70;99.90
57664;DHT22;43493;53.098;6.064;2023-02-23T10:28:28;8.70;99.90
57664;DHT22;43493;53.098;6.064;2023-02-23T10:30:57;8.70;99.90
57664;DHT22;43493;53.098;6.064;2023-02-23T10:33:37;8.80;99.90
57664;DHT22;43493;53.098;6.064;2023-02-23T10:36:37;8.80;99.90
57664;DHT22;43493;53.098;6.064;2023-02-23T10:39:07;8.80;99.90
57664;DHT22;43493;53.098;6.064;2023-02-23T10:41:36;8.80;99.90
57664;DHT22;43493;53.098;6.064;2023-02-23T10:44:04;8.80;99.90
57664;DHT22;43493;53.098;6.064;2023-02-23T10:46:36;8.80;99.90
57664;DHT22;43493;53.098;6.064;2023-02-23T10:49:03;8.80;99.90
57664;DHT22;43493;53.098;6.064;2023-02-23T10:51:35;8.90;99.90
57664;DHT22;43493;53.098;6.064;2023-02-23T10:56:59;9.00;99.90
57664;DHT22;43493;53.098;6.064;2023-02-23T10:59:25;9.10;99.90
57664;DHT22;43493;53.098;6.064;2023-02-23T11:01:51;9.10;99.90
57664;DHT22;43493;53.098;6.064;2023-02-23T11:04:26;9.10;99.90
57664;DHT22;43493;53.098;6.064;2023-02-23T11:07:40;9.10;99.90
57664;DHT22;43493;53.098;6.064;2023-02-23T11:10:24;9.00;99.90
57664;DHT22;43493;53.098;6.064;2023-02-23T11:12:51;9.00;99.90
57664;DHT22;43493;53.098;6.064;2023-02-23T11:15:29;9.00;99.90
57664;DHT22;43493;53.098;6.064;2023-02-23T11:18:00;9.00;99.90
57664;DHT22;43493;53.098;6.064;2023-02-23T11:20:35;9.10;99.90
57664;DHT22;43493;53.098;6.064;2023-02-23T11:23:14;9.20;99.90
57664;DHT22;43493;53.098;6.064;2023-02-23T11:25:43;9.20;99.90
57664;DHT22;43493;53.098;6.064;2023-02-23T11:28:36;9.20;99.90
57664;DHT22;43493;53.098;6.064;2023-02-23T11:31:30;9.20;99.90
57664;DHT22;43493;53.098;6.064;2023-02-23T11:33:57;9.20;99.90
57664;DHT22;43493;53.098;6.064;2023-02-23T11:39:21;9.20;99.90
57664;DHT22;43493;53.098;6.064;2023-02-23T11:42:24;9.20;99.90
57664;DHT22;43493;53.098;6.064;2023-02-23T11:45:01;9.10;99.90
57664;DHT22;43493;53.098;6.064;2023-02-23T11:47:28;9.20;99.90
57664;DHT22;43493;53.098;6.064;2023-02-23T11:49:55;9.20;99.90
57664;DHT22;43493;53.098;6.064;2023-02-23T11:52:22;9.20;99.90
57664;DHT22;43493;53.098;6.064;2023-02-23T11:54:53;9.20;99.90
57664;DHT22;43493;53.098;6.064;2023-02-23T11:57:22;9.10;99.90
57664;DHT22;43493;53.098;6.064;2023-02-23T11:59:48;9.10;99.90
57664;DHT22;43493;53.098;6.064;2023-02-23T12:02:23;9.10;99.90
57664;DHT22;43493;53.098;6.064;2023-02-23T12:05:16;9.10;99.90
57664;DHT22;43493;53.098;6.064;2023-02-23T12:08:01;9.10;99.90
57664;DHT22;43493;53.098;6.064;2023-02-23T12:13:10;9.10;99.90
57664;DHT22;43493;53.098;6.064;2023-02-23T12:20:56;9.20;99.90
57664;DHT22;43493;53.098;6.064;2023-02-23T12:23:28;9.20;99.90
57664;DHT22;43493;53.098;6.064;2023-02-23T12:26:23;9.10;99.90
57664;DHT22;43493;53.098;6.064;2023-02-23T12:28:55;9.10;99.90
57664;DHT22;43493;53.098;6.064;2023-02-23T12:31:46;9.10;99.90
57664;DHT22;43493;53.098;6.064;2023-02-23T12:36:54;9.00;99.90
57664;DHT22;43493;53.098;6.064;2023-02-23T12:39:26;8.90;99.90
57664;DHT22;43493;53.098;6.064;2023-02-23T12:46:59;8.60;99.90
57664;DHT22;43493;53.098;6.064;2023-02-23T12:52:03;8.60;99.90
57664;DHT22;43493;53.098;6.064;2023-02-23T12:54:35;8.60;99.90
57664;DHT22;43493;53.098;6.064;2023-02-23T13:00:03;8.40;99.90
57664;DHT22;43493;53.098;6.064;2023-02-23T13:05:56;8.40;99.90
57664;DHT22;43493;53.098;6.064;2023-02-23T13:11:26;8.30;99.90
57664;DHT22;43493;53.098;6.064;2023-02-23T13:14:17;8.30;99.90
57664;DHT22;43493;53.098;6.064;2023-02-23T13:16:50;8.30;99.90
57664;DHT22;43493;53.098;6.064;2023-02-23T13:24:25;8.00;99.90
57664;DHT22;43493;53.098;6.064;2023-02-23T13:27:00;8.00;99.90
57664;DHT22;43493;53.098;6.064;2023-02-23T13:29:33;8.00;99.90
57664;DHT22;43493;53.098;6.064;2023-02-23T13:32:01;7.90;99.90
57664;DHT22;43493;53.098;6.064;2023-02-23T13:34:33;8.00;99.90
57664;DHT22;43493;53.098;6.064;2023-02-23T13:37:03;8.00;99.90
57664;DHT22;43493;53.098;6.064;2023-02-23T13:42:13;7.90;99.90
57664;DHT22;43493;53.098;6.064;2023-02-23T13:49:53;7.90;99.90
57664;DHT22;43493;53.098;6.064;2023-02-23T13:52:36;7.90;99.90
57664;DHT22;43493;53.098;6.064;2023-02-23T13:57:55;7.90;99.90
57664;DHT22;43493;53.098;6.064;2023-02-23T14:00:23;7.80;99.90
57664;DHT22;43493;53.098;6.064;2023-02-23T14:02:49;7.90;99.90
57664;DHT22;43493;53.098;6.064;2023-02-23T14:05:24;7.80;99.90
57664;DHT22;43493;53.098;6.064;2023-02-23T14:07:58;7.80;99.90
57664;DHT22;43493;53.098;6.064;2023-02-23T14:10:27;7.80;99.90
57664;DHT22;43493;53.098;6.064;2023-02-23T14:15:46;7.80;99.90
57664;DHT22;43493;53.098;6.064;2023-02-23T14:24:21;7.70;99.90
57664;DHT22;43493;53.098;6.064;2023-02-23T14:39:52;7.40;99.90
57664;DHT22;43493;53.098;6.064;2023-02-23T14:42:24;7.40;99.90
57664;DHT22;43493;53.098;6.064;2023-02-23T14:44:52;7.40;99.90
57664;DHT22;43493;53.098;6.064;2023-02-23T14:47:24;7.30;99.90
57664;DHT22;43493;53.098;6.064;2023-02-23T14:52:32;7.40;99.90
57664;DHT22;43493;53.098;6.064;2023-02-23T14:57:39;7.40;99.90
57664;DHT22;43493;53.098;6.064;2023-02-23T15:00:27;7.40;99.90
57664;DHT22;43493;53.098;6.064;2023-02-23T15:03:13;7.40;99.90
57664;DHT22;43493;53.098;6.064;2023-02-23T15:05:50;7.40;99.90
57664;DHT22;43493;53.098;6.064;2023-02-23T15:08:21;7.40;99.90
57664;DHT22;43493;53.098;6.064;2023-02-23T15:11:11;7.40;99.90
57664;DHT22;43493;53.098;6.064;2023-02-23T15:13:41;7.40;99.90
57664;DHT22;43493;53.098;6.064;2023-02-23T15:16:15;7.40;99.90
57664;DHT22;43493;53.098;6.064;2023-02-23T15:18:43;7.40;99.90
57664;DHT22;43493;53.098;6.064;2023-02-23T15:21:19;7.40;99.90
57664;DHT22;43493;53.098;6.064;2023-02-23T15:23:48;7.40;99.90
57664;DHT22;43493;53.098;6.064;2023-02-23T15:26:24;7.40;99.90
57664;DHT22;43493;53.098;6.064;2023-02-23T15:28:50;7.50;99.90
57664;DHT22;43493;53.098;6.064;2023-02-23T15:31:16;7.40;99.90
57664;DHT22;43493;53.098;6.064;2023-02-23T15:33:43;7.40;99.90
57664;DHT22;43493;53.098;6.064;2023-02-23T15:36:37;7.40;99.90
57664;DHT22;43493;53.098;6.064;2023-02-23T15:39:05;7.40;99.90
57664;DHT22;43493;53.098;6.064;2023-02-23T15:41:35;7.50;99.90
57664;DHT22;43493;53.098;6.064;2023-02-23T15:44:22;7.40;99.90
57664;DHT22;43493;53.098;6.064;2023-02-23T15:46:53;7.40;99.90
57664;DHT22;43493;53.098;6.064;2023-02-23T15:49:20;7.40;99.90
57664;DHT22;43493;53.098;6.064;2023-02-23T15:51:50;7.40;99.90
57664;DHT22;43493;53.098;6.064;2023-02-23T15:54:38;7.40;99.90
57664;DHT22;43493;53.098;6.064;2023-02-23T15:57:18;7.40;99.90
57664;DHT22;43493;53.098;6.064;2023-02-23T15:59:46;7.40;99.90
57664;DHT22;43493;53.098;6.064;2023-02-23T16:02:18;7.40;99.90
57664;DHT22;43493;53.098;6.064;2023-02-23T16:04:46;7.40;99.90
57664;DHT22;43493;53.098;6.064;2023-02-23T16:07:20;7.30;99.90
57664;DHT22;43493;53.098;6.064;2023-02-23T16:10:01;7.30;99.90
57664;DHT22;43493;53.098;6.064;2023-02-23T16:12:33;7.30;99.90
57664;DHT22;43493;53.098;6.064;2023-02-23T16:15:02;7.20;99.90
57664;DHT22;43493;53.098;6.064;2023-02-23T16:22:44;7.30;99.90
57664;DHT22;43493;53.098;6.064;2023-02-23T16:25:15;7.30;99.90
57664;DHT22;43493;53.098;6.064;2023-02-23T16:27:43;7.20;99.90
57664;DHT22;43493;53.098;6.064;2023-02-23T16:30:33;7.20;99.90
57664;DHT22;43493;53.098;6.064;2023-02-23T16:33:05;7.30;99.90
57664;DHT22;43493;53.098;6.064;2023-02-23T16:35:43;7.20;99.90
57664;DHT22;43493;53.098;6.064;2023-02-23T16:40:45;7.20;99.90
57664;DHT22;43493;53.098;6.064;2023-02-23T16:43:13;7.10;99.90
57664;DHT22;43493;53.098;6.064;2023-02-23T16:45:41;7.20;99.90
57664;DHT22;43493;53.098;6.064;2023-02-23T16:48:14;7.20;99.90
57664;DHT22;43493;53.098;6.064;2023-02-23T16:50:40;7.10;99.90
57664;DHT22;43493;53.098;6.064;2023-02-23T16:53:08;7.10;99.90
57664;DHT22;43493;53.098;6.064;2023-02-23T16:55:36;7.00;99.90
57664;DHT22;43493;53.098;6.064;2023-02-23T16:58:18;7.00;99.90
57664;DHT22;43493;53.098;6.064;2023-02-23T17:00:45;6.90;99.90
57664;DHT22;43493;53.098;6.064;2023-02-23T17:03:23;6.80;99.90
57664;DHT22;43493;53.098;6.064;2023-02-23T17:05:49;6.70;99.90
57664;DHT22;43493;53.098;6.064;2023-02-23T17:08:16;6.70;99.90
57664;DHT22;43493;53.098;6.064;2023-02-23T17:10:44;6.70;99.90
57664;DHT22;43493;53.098;6.064;2023-02-23T17:13:19;6.70;99.90
57664;DHT22;43493;53.098;6.064;2023-02-23T17:15:47;6.70;99.90
57664;DHT22;43493;53.098;6.064;2023-02-23T17:18:15;6.70;99.90
57664;DHT22;43493;53.098;6.064;2023-02-23T17:20:41;6.60;99.90
57664;DHT22;43493;53.098;6.064;2023-02-23T17:23:07;6.60;99.90
57664;DHT22;43493;53.098;6.064;2023-02-23T17:25:33;6.60;99.90
57664;DHT22;43493;53.098;6.064;2023-02-23T17:28:00;6.60;99.90
57664;DHT22;43493;53.098;6.064;2023-02-23T17:30:29;6.60;99.90
57664;DHT22;43493;53.098;6.064;2023-02-23T17:32:57;6.70;99.90
57664;DHT22;43493;53.098;6.064;2023-02-23T17:35:23;6.70;99.90
57664;DHT22;43493;53.098;6.064;2023-02-23T17:37:50;6.70;99.90
57664;DHT22;43493;53.098;6.064;2023-02-23T17:40:22;6.80;99.90
57664;DHT22;43493;53.098;6.064;2023-02-23T17:42:53;6.80;99.90
57664;DHT22;43493;53.098;6.064;2023-02-23T17:45:19;6.90;99.90
57664;DHT22;43493;53.098;6.064;2023-02-23T17:47:44;6.80;99.90
57664;DHT22;43493;53.098;6.064;2023-02-23T17:50:10;6.80;99.90
57664;DHT22;43493;53.098;6.064;2023-02-23T17:52:36;6.80;99.90
57664;DHT22;43493;53.098;6.064;2023-02-23T17:55:02;6.80;99.90
57664;DHT22;43493;53.098;6.064;2023-02-23T17:57:27;6.70;99.90
57664;DHT22;43493;53.098;6.064;2023-02-23T17:59:55;6.70;99.90
57664;DHT22;43493;53.098;6.064;2023-02-23T18:02:21;6.70;99.90
57664;DHT22;43493;53.098;6.064;2023-02-23T18:04:48;6.70;99.90
57664;DHT22;43493;53.098;6.064;2023-02-23T18:07:15;6.60;99.90
57664;DHT22;43493;53.098;6.064;2023-02-23T18:09:41;6.70;99.90
57664;DHT22;43493;53.098;6.064;2023-02-23T18:12:07;6.70;99.90
57664;DHT22;43493;53.098;6.064;2023-02-23T18:14:34;6.70;99.90
57664;DHT22;43493;53.098;6.064;2023-02-23T18:17:00;6.60;99.90
57664;DHT22;43493;53.098;6.064;2023-02-23T18:19:26;6.70;99.90
57664;DHT22;43493;53.098;6.064;2023-02-23T18:21:52;6.60;99.90
57664;DHT22;43493;53.098;6.064;2023-02-23T18:24:22;6.60;99.90